Gilmanton, Wisconsin
Current Conditions -  °F | °C
As of 12:55 PM on Friday 24 Oct 2014 (Local Time) from KONA Reporting Station
Overcast Overcast  
Wind Chill: 59°   Ceiling: 4400
Heat Index: 59°   Visibility: 10mi
Dew Point: 54°   Wind: 9mph
Humidity: 82%   Direction: 130°SE
Pressure: 29.89"   Gusts: NA
Location:  44.47°N, 91.68°W
Report Text: KONA 241755Z AUTO 13008KT 10SM BKN044 BKN050 OVC070 15/12 A2989 RMK AO2
Loading
Personal Weather Stations






























Interactive Weather Map
Tropical Storm Tracking
New forecast layout! Learn more

10-Day Weather Forecast

Advertisements
Track Severe Weather on mobile